createdAt,value
2017-03-23T13:56:56.966Z,20.15
2017-03-23T13:57:55.164Z,19.70
2017-03-23T13:58:52.854Z,21.58
2017-03-23T13:59:52.310Z,20.03
2017-03-23T14:00:50.164Z,20.72
2017-03-23T14:01:47.791Z,20.15
2017-03-23T14:02:45.460Z,18.48
2017-03-23T14:03:43.298Z,18.88
2017-03-23T14:04:40.930Z,18.53
2017-03-23T14:05:38.759Z,17.93
2017-03-23T14:06:37.404Z,19.18
2017-03-23T14:07:35.662Z,18.52
2017-03-23T14:08:33.374Z,18.07
2017-03-23T14:09:31.284Z,18.25
2017-03-23T14:10:29.443Z,17.47
2017-03-23T14:11:27.152Z,17.08
2017-03-23T14:12:25.053Z,18.28
2017-03-23T14:13:23.433Z,17.60
2017-03-23T14:14:21.278Z,17.93
2017-03-23T14:15:19.616Z,17.98
2017-03-23T14:16:17.314Z,17.85
2017-03-23T14:17:15.019Z,18.12
2017-03-23T14:18:12.657Z,16.82
2017-03-23T14:19:11.086Z,16.87
2017-03-23T14:20:09.210Z,15.00
2017-03-23T14:21:07.869Z,15.90
2017-03-23T14:22:05.719Z,16.58
2017-03-23T14:23:03.426Z,14.83
2017-03-23T14:24:01.269Z,15.03
2017-03-23T14:24:59.077Z,14.12
2017-03-23T14:25:57.652Z,15.90
2017-03-23T14:26:55.402Z,15.08
2017-03-23T14:27:53.064Z,15.33
2017-03-23T14:28:50.736Z,16.13
2017-03-23T14:29:49.194Z,15.60
2017-03-23T14:30:47.590Z,15.68
2017-03-23T14:31:46.287Z,15.27
2017-03-23T14:32:44.783Z,14.92
2017-03-23T14:36:44.369Z,15.13
2017-03-23T14:47:30.185Z,14.23
2017-03-23T14:48:27.890Z,11.98
2017-03-23T14:49:25.521Z,14.23
2017-03-23T14:50:23.683Z,14.15
2017-03-23T14:51:21.549Z,13.42
2017-03-23T14:52:19.329Z,13.18
2017-03-23T14:53:18.003Z,13.68
2017-03-23T14:54:16.714Z,14.02
2017-03-23T14:55:14.628Z,14.95
2017-03-23T14:56:12.346Z,14.37
2017-03-23T14:57:10.074Z,14.35
2017-03-23T14:58:07.711Z,13.72
2017-03-23T14:59:05.362Z,14.27
2017-03-23T15:00:03.347Z,14.12
2017-03-23T15:01:01.003Z,13.85
2017-03-23T15:01:58.692Z,14.93
2017-03-23T15:02:56.398Z,14.80
2017-03-23T15:03:54.005Z,14.07
2017-03-23T15:04:51.623Z,16.18
2017-03-23T15:05:50.168Z,14.80
2017-03-23T15:06:47.857Z,13.85
2017-03-23T15:07:45.466Z,13.47
2017-03-23T15:08:43.082Z,13.87
2017-03-23T15:09:41.723Z,14.92
2017-03-23T15:10:39.426Z,14.75
2017-03-23T15:11:37.177Z,12.83
2017-03-23T15:12:35.467Z,14.38
2017-03-23T15:13:33.142Z,13.80
2017-03-23T15:14:30.834Z,14.10
2017-03-23T15:15:29.039Z,12.63
2017-03-23T15:16:26.838Z,13.15
2017-03-23T15:17:24.504Z,13.68
2017-03-23T15:18:22.165Z,14.00
2017-03-23T15:19:19.834Z,13.42
2017-03-23T15:20:17.555Z,13.07
2017-03-23T15:21:15.589Z,15.05
2017-03-23T15:22:13.266Z,14.10
2017-03-23T15:23:10.882Z,14.18
2017-03-23T15:24:08.539Z,14.73
2017-03-23T15:25:06.253Z,12.67
2017-03-23T15:26:03.903Z,14.92
2017-03-23T15:27:01.886Z,14.20
2017-03-23T15:27:59.592Z,14.87
2017-03-23T15:28:57.346Z,15.12
2017-03-23T15:29:55.075Z,13.50
2017-03-23T15:30:52.823Z,14.75
2017-03-23T15:31:52.043Z,15.62
2017-03-23T15:32:49.730Z,14.50
2017-03-23T15:33:47.399Z,16.27
2017-03-23T15:34:45.022Z,16.37
2017-03-23T15:35:42.700Z,14.70
2017-03-23T15:36:40.419Z,14.65
2017-03-23T15:37:38.572Z,13.63
2017-03-23T15:38:36.310Z,15.47
2017-03-23T15:39:35.039Z,14.22
2017-03-23T15:40:33.212Z,14.42
2017-03-23T15:41:30.939Z,13.92
2017-03-23T15:42:30.003Z,16.23
2017-03-23T15:43:27.714Z,15.08
2017-03-23T15:44:25.351Z,14.90
2017-03-23T15:45:23.872Z,14.83
2017-03-23T15:46:21.629Z,15.07
2017-03-23T15:47:20.950Z,14.65
2017-03-23T15:48:18.667Z,15.02
2017-03-23T15:49:16.456Z,14.75
2017-03-23T15:50:14.524Z,15.07
2017-03-23T15:51:12.162Z,14.38
2017-03-23T15:52:10.004Z,14.83
2017-03-23T15:53:07.835Z,14.68
2017-03-23T15:54:06.561Z,14.27
2017-03-23T15:55:04.644Z,14.87
2017-03-23T15:56:02.306Z,14.73
2017-03-23T15:56:59.941Z,14.65
2017-03-23T15:57:57.630Z,14.68
2017-03-23T15:58:55.269Z,14.02
2017-03-23T15:59:52.965Z,14.65
2017-03-23T16:00:50.962Z,15.32
2017-03-23T16:01:49.735Z,19.12
2017-03-23T16:02:47.402Z,15.82
2017-03-23T16:03:45.243Z,14.98
2017-03-23T16:04:42.914Z,15.72
2017-03-23T16:05:40.689Z,16.60
2017-03-23T16:06:38.916Z,15.87
2017-03-23T16:07:36.552Z,15.78
2017-03-23T16:08:34.191Z,14.63
2017-03-23T16:09:32.543Z,15.42
2017-03-23T16:10:30.274Z,14.83
2017-03-23T16:11:27.866Z,15.65
2017-03-23T16:12:25.682Z,16.95
2017-03-23T16:13:23.349Z,17.28
2017-03-23T16:14:21.819Z,16.20
2017-03-23T16:15:20.134Z,17.58
2017-03-23T16:16:17.930Z,16.40
2017-03-23T16:17:15.812Z,17.13
2017-03-23T16:18:13.571Z,17.42
2017-03-23T16:19:12.222Z,17.63
2017-03-23T16:20:10.023Z,17.88
2017-03-23T16:21:07.893Z,17.33
2017-03-23T16:22:06.529Z,19.02
2017-03-23T16:23:04.345Z,19.80
2017-03-23T16:24:02.624Z,18.25
2017-03-23T16:25:00.559Z,19.80
2017-03-23T16:25:58.629Z,20.03
2017-03-23T16:26:56.319Z,20.02
2017-03-23T16:27:54.499Z,20.27
2017-03-23T16:28:52.147Z,20.33
2017-03-23T16:29:50.333Z,19.98
2017-03-23T16:30:48.085Z,20.72
2017-03-23T16:31:45.899Z,22.12
2017-03-23T16:32:43.651Z,21.90
2017-03-23T16:33:41.476Z,22.62
2017-03-23T16:34:39.119Z,22.88
2017-03-23T16:35:37.407Z,23.67
2017-03-23T16:36:35.212Z,23.73
2017-03-23T16:37:33.026Z,24.22
2017-03-23T16:38:30.679Z,23.72
2017-03-23T16:39:28.470Z,23.60
2017-03-23T16:40:26.354Z,23.25
2017-03-23T16:41:24.050Z,22.25
2017-03-23T16:42:21.794Z,23.58
2017-03-23T16:43:19.702Z,23.45
2017-03-23T16:44:17.429Z,23.23
2017-03-23T16:45:16.236Z,24.87
2017-03-23T16:46:14.011Z,24.73
2017-03-23T16:47:11.691Z,24.37
2017-03-23T16:48:09.499Z,25.82
2017-03-23T16:49:07.238Z,24.90
2017-03-23T16:50:05.635Z,24.70
2017-03-23T16:51:04.806Z,23.87
2017-03-23T16:52:02.499Z,25.98
2017-03-23T16:53:00.180Z,25.00
2017-03-23T16:53:58.744Z,24.58
2017-03-23T16:54:57.460Z,26.92
2017-03-23T16:55:55.272Z,27.73
2017-03-23T16:56:53.536Z,27.47
2017-03-23T16:57:51.380Z,26.73
2017-03-23T16:58:50.048Z,26.32
2017-03-23T16:59:47.851Z,27.33
2017-03-23T17:00:46.049Z,30.02
2017-03-23T17:01:43.977Z,28.27
2017-03-23T17:02:41.792Z,29.00
2017-03-23T17:03:39.556Z,30.07
2017-03-23T17:04:37.312Z,29.37
2017-03-23T17:05:35.579Z,30.58
2017-03-23T17:06:35.975Z,30.23
2017-03-23T17:07:33.592Z,29.03
2017-03-23T17:08:32.134Z,29.75
2017-03-23T17:09:29.968Z,28.85
2017-03-23T17:10:27.727Z,29.22
2017-03-23T17:11:25.900Z,29.55
2017-03-23T17:12:24.655Z,28.22
2017-03-23T17:13:22.771Z,28.13
2017-03-23T17:14:20.458Z,31.83
2017-03-23T17:15:18.330Z,29.90
2017-03-23T17:16:16.177Z,31.08
2017-03-23T17:17:14.810Z,27.13
2017-03-23T17:18:12.452Z,27.07
2017-03-23T17:19:10.271Z,27.50
2017-03-23T17:20:08.030Z,25.48
2017-03-23T17:21:05.699Z,28.13
2017-03-23T17:22:03.717Z,27.37
2017-03-23T17:23:02.324Z,26.87
2017-03-23T17:24:01.747Z,23.42
2017-03-23T17:24:59.438Z,25.53
2017-03-23T17:25:57.243Z,25.98
2017-03-23T17:26:55.174Z,23.60
2017-03-23T17:27:53.094Z,24.48
2017-03-23T17:28:50.701Z,23.75
2017-03-23T17:29:48.704Z,24.50
2017-03-23T17:30:46.579Z,24.18
2017-03-23T17:31:44.210Z,20.87
2017-03-23T17:32:41.876Z,21.15
2017-03-23T17:33:39.629Z,20.87
2017-03-23T17:34:37.269Z,21.88
2017-03-23T17:35:35.110Z,21.97
2017-03-23T17:36:32.749Z,24.35
2017-03-23T17:37:30.419Z,25.72
2017-03-23T17:38:28.199Z,23.80
2017-03-23T17:39:27.463Z,28.25
2017-03-23T17:40:25.642Z,28.77
2017-03-23T17:41:23.375Z,22.97
2017-03-23T17:42:22.612Z,23.77
2017-03-23T17:43:20.285Z,23.55
2017-03-23T17:44:18.028Z,23.85
2017-03-23T17:45:15.867Z,25.72
2017-03-23T17:46:13.815Z,23.47
2017-03-23T17:47:11.526Z,24.42
2017-03-23T17:48:09.191Z,23.70
2017-03-23T17:49:07.030Z,22.68
2017-03-23T17:50:05.313Z,24.28
2017-03-23T17:51:03.231Z,23.03
2017-03-23T17:52:01.015Z,23.87
2017-03-23T17:52:59.370Z,23.63
2017-03-23T17:53:57.480Z,25.57
2017-03-23T17:54:55.681Z,25.12
2017-03-23T17:55:53.929Z,23.43
2017-03-23T17:56:51.621Z,23.48
2017-03-23T17:57:49.293Z,22.57
2017-03-23T17:58:46.952Z,23.63
2017-03-23T17:59:44.714Z,27.35
2017-03-23T18:00:43.536Z,23.53
2017-03-23T18:01:41.191Z,23.77
2017-03-23T18:02:38.838Z,23.33
2017-03-23T18:03:36.963Z,21.87
2017-03-23T18:04:34.641Z,23.15
2017-03-23T18:05:32.751Z,27.05
2017-03-23T18:06:31.073Z,25.47
2017-03-23T18:07:28.773Z,22.32
2017-03-23T18:08:26.463Z,21.90
2017-03-23T18:09:24.084Z,21.68
2017-03-23T18:10:21.770Z,26.77
2017-03-23T18:11:19.793Z,21.95
2017-03-23T18:12:17.496Z,22.77
2017-03-23T18:13:15.270Z,18.40
2017-03-23T18:14:13.534Z,20.85
2017-03-23T18:15:11.337Z,23.80
2017-03-23T18:16:09.001Z,25.98
2017-03-23T18:17:06.713Z,19.90
2017-03-23T18:18:04.337Z,20.30
2017-03-23T18:19:02.922Z,20.28
2017-03-23T18:20:00.588Z,21.07
2017-03-23T18:20:58.366Z,20.52
2017-03-23T18:21:56.036Z,23.73
2017-03-23T18:22:53.721Z,24.70
2017-03-23T18:23:51.954Z,24.18
2017-03-23T18:24:49.611Z,20.92
2017-03-23T18:25:50.435Z,23.52
2017-03-23T18:26:48.076Z,23.52
2017-03-23T18:27:46.441Z,23.83
2017-03-23T18:28:44.824Z,23.05
2017-03-23T18:29:43.491Z,28.25
2017-03-23T18:30:41.207Z,26.45
2017-03-23T18:31:39.479Z,24.02
2017-03-23T18:32:37.217Z,24.37
2017-03-23T18:33:34.919Z,27.15
2017-03-23T18:34:33.745Z,29.77
2017-03-23T18:35:32.311Z,26.50
2017-03-23T18:36:30.815Z,26.50
2017-03-23T18:37:28.519Z,24.97
2017-03-23T18:38:26.207Z,27.33
2017-03-23T18:39:24.255Z,27.58
2017-03-23T18:40:22.308Z,27.50
2017-03-23T18:41:20.004Z,26.43
2017-03-23T18:42:18.522Z,28.18
2017-03-23T18:43:16.250Z,27.47
2017-03-23T18:44:13.986Z,27.00
2017-03-23T18:45:12.134Z,26.47
2017-03-23T18:46:09.831Z,28.72
2017-03-23T18:47:08.510Z,29.08
2017-03-23T18:48:07.225Z,26.85
2017-03-23T18:49:05.691Z,27.78
2017-03-23T18:50:04.615Z,28.72
2017-03-23T18:51:02.319Z,28.02
2017-03-23T18:52:00.886Z,27.27
2017-03-23T18:52:59.123Z,28.68
2017-03-23T18:53:56.791Z,28.38
2017-03-23T18:54:54.525Z,29.55
2017-03-23T18:55:53.258Z,29.88
2017-03-23T18:56:51.060Z,29.60
2017-03-23T18:57:48.867Z,30.45
2017-03-23T18:58:47.437Z,30.78
2017-03-23T18:59:45.163Z,28.45
2017-03-23T19:00:43.156Z,29.42
2017-03-23T19:01:40.897Z,30.70
2017-03-23T19:02:39.243Z,29.87
2017-03-23T19:03:38.593Z,30.47
2017-03-23T19:04:36.303Z,26.77
2017-03-23T19:05:34.093Z,27.72
2017-03-23T19:06:31.799Z,27.33
2017-03-23T19:07:30.181Z,26.82
2017-03-23T19:08:28.031Z,26.32
2017-03-23T19:09:26.751Z,25.75
2017-03-23T19:10:25.472Z,26.00
2017-03-23T19:11:24.032Z,24.50
2017-03-23T19:12:21.762Z,26.48
2017-03-23T19:13:19.541Z,26.52
2017-03-23T19:14:18.060Z,25.08
2017-03-23T19:15:16.221Z,24.57
2017-03-23T19:16:14.148Z,25.07
2017-03-23T19:17:14.109Z,27.32
2017-03-23T19:18:12.069Z,28.03
2017-03-23T19:19:09.760Z,25.97
2017-03-23T19:20:07.557Z,28.13
2017-03-23T19:21:06.214Z,25.82
2017-03-23T19:22:04.582Z,25.45
2017-03-23T19:23:02.987Z,25.60
2017-03-23T19:24:02.708Z,26.40
2017-03-23T19:25:00.430Z,27.82
2017-03-23T19:25:58.984Z,26.53
2017-03-23T19:26:57.052Z,26.10
2017-03-23T19:27:54.749Z,26.32
2017-03-23T19:28:52.580Z,26.77
2017-03-23T19:29:50.248Z,27.90
2017-03-23T19:30:48.410Z,27.95
2017-03-23T19:31:46.499Z,27.62
2017-03-23T19:32:44.447Z,24.85
2017-03-23T19:33:42.168Z,27.03
2017-03-23T19:34:40.547Z,27.28
2017-03-23T19:35:38.682Z,26.60
2017-03-23T19:36:36.383Z,27.13
2017-03-23T19:37:34.429Z,25.25
2017-03-23T19:38:32.178Z,25.78
2017-03-23T19:39:29.900Z,27.22
2017-03-23T19:40:27.935Z,25.45
2017-03-23T19:41:26.395Z,24.53
2017-03-23T19:42:24.052Z,25.50
2017-03-23T19:43:21.820Z,24.47
2017-03-23T19:44:19.543Z,26.93
2017-03-23T19:45:17.587Z,24.42
2017-03-23T19:46:15.994Z,24.43
2017-03-23T19:47:13.725Z,25.23
2017-03-23T19:48:12.041Z,26.18
2017-03-23T19:49:11.173Z,25.17
2017-03-23T19:50:10.432Z,25.42
2017-03-23T19:51:08.212Z,26.33
2017-03-23T19:52:06.871Z,26.70
2017-03-23T19:53:05.705Z,26.22
2017-03-23T19:54:04.040Z,25.17
2017-03-23T19:55:02.650Z,26.35
2017-03-23T19:56:00.540Z,26.28
2017-03-23T19:56:59.423Z,24.47
2017-03-23T19:57:57.364Z,25.95
2017-03-23T19:58:55.449Z,23.40
2017-03-23T19:59:54.251Z,25.67
2017-03-23T20:00:53.005Z,23.88
2017-03-23T20:01:50.865Z,25.50
2017-03-23T20:02:49.572Z,25.62
2017-03-23T20:03:47.623Z,27.00
2017-03-23T20:04:46.332Z,24.45
2017-03-23T20:05:44.422Z,27.37
2017-03-23T20:06:42.157Z,24.43
2017-03-23T20:07:39.930Z,27.47
2017-03-23T20:08:38.831Z,25.20
2017-03-23T20:09:37.814Z,27.45
2017-03-23T20:10:36.175Z,27.08
2017-03-23T20:11:34.966Z,27.97
2017-03-23T20:12:32.844Z,26.00
2017-03-23T20:13:30.871Z,29.23
2017-03-23T20:14:28.647Z,27.82
2017-03-23T20:16:31.264Z,26.55
2017-03-23T20:17:29.946Z,32.42
2017-03-23T20:18:28.607Z,28.63
2017-03-23T20:19:26.332Z,28.33
2017-03-23T20:20:24.028Z,27.02
2017-03-23T20:21:23.026Z,26.62
2017-03-23T20:22:20.896Z,29.42
2017-03-23T20:23:18.919Z,29.52
2017-03-23T20:24:17.483Z,27.23
2017-03-23T20:25:15.547Z,30.05
2017-03-23T20:26:13.440Z,28.92
2017-03-23T20:27:11.363Z,28.93
2017-03-23T20:28:09.903Z,27.60
2017-03-23T20:29:07.705Z,27.92
2017-03-23T20:30:07.710Z,29.63
2017-03-23T20:31:05.767Z,28.23
2017-03-23T20:32:04.548Z,30.03
2017-03-23T20:33:03.825Z,28.98
2017-03-23T20:34:01.539Z,29.15
2017-03-23T20:34:59.484Z,30.67
2017-03-23T20:35:57.471Z,29.40
2017-03-23T20:36:55.840Z,29.75
2017-03-23T20:37:53.605Z,30.32
2017-03-23T20:38:51.352Z,33.17
2017-03-23T20:39:49.083Z,33.60
2017-03-23T20:40:48.066Z,32.07
2017-03-23T20:41:45.856Z,34.40
2017-03-23T20:42:43.528Z,31.73
2017-03-23T20:43:41.871Z,31.73
2017-03-23T20:44:39.707Z,31.58
2017-03-23T20:45:37.995Z,32.12
2017-03-23T20:46:36.432Z,31.43
2017-03-23T20:47:34.121Z,28.13
2017-03-23T20:48:31.835Z,31.18
2017-03-23T20:49:29.762Z,31.38
2017-03-23T20:50:28.539Z,34.35
2017-03-23T20:51:26.836Z,27.88
2017-03-23T20:52:24.577Z,30.93
2017-03-23T20:53:22.469Z,29.50
2017-03-23T20:54:20.818Z,32.25
2017-03-23T20:55:19.595Z,30.48
2017-03-23T20:56:19.053Z,29.72
2017-03-23T20:57:17.107Z,31.20
2017-03-23T20:58:14.837Z,29.22
2017-03-23T20:59:12.652Z,29.43
2017-03-23T21:00:11.385Z,29.68
2017-03-23T21:01:10.508Z,30.23
2017-03-23T21:02:08.859Z,30.35
2017-03-23T21:03:07.587Z,31.07
2017-03-23T21:04:05.897Z,31.88
2017-03-23T21:05:03.781Z,30.80
2017-03-23T21:06:02.021Z,31.48
2017-03-23T21:07:00.001Z,31.12
2017-03-23T21:07:58.392Z,33.32
2017-03-23T21:08:56.226Z,31.18
2017-03-23T21:09:55.388Z,31.98
2017-03-23T21:10:53.139Z,30.72
2017-03-23T21:11:52.276Z,33.40
2017-03-23T21:12:50.231Z,32.93
2017-03-23T21:13:47.888Z,32.70
2017-03-23T21:14:45.738Z,31.52
2017-03-23T21:15:43.662Z,32.18
2017-03-23T21:16:41.338Z,33.48
2017-03-23T21:17:39.147Z,37.40
2017-03-23T21:18:36.823Z,35.52
2017-03-23T21:19:34.481Z,36.57
2017-03-23T21:20:32.385Z,36.93
2017-03-23T21:21:30.237Z,34.87
2017-03-23T21:22:27.991Z,34.70
2017-03-23T21:23:25.885Z,38.42
2017-03-23T21:24:23.548Z,34.30
2017-03-23T21:25:21.813Z,32.58
2017-03-23T21:26:19.691Z,34.92
2017-03-23T21:27:18.852Z,34.65
2017-03-23T21:28:16.923Z,31.67
2017-03-23T21:29:14.720Z,35.20
2017-03-23T21:30:13.332Z,33.33
2017-03-23T21:31:11.111Z,36.73
2017-03-23T21:32:09.077Z,33.52
2017-03-23T21:33:06.803Z,34.83
2017-03-23T21:34:04.679Z,36.77
2017-03-23T21:35:03.607Z,33.95
2017-03-23T21:36:01.264Z,34.88
2017-03-23T21:36:59.202Z,38.40
2017-03-23T21:37:56.949Z,38.32
2017-03-23T21:38:55.483Z,37.98
2017-03-23T21:39:53.254Z,38.13
2017-03-23T21:40:51.704Z,37.43
2017-03-23T21:41:49.555Z,37.82
2017-03-23T21:42:47.508Z,36.12
2017-03-23T21:43:45.134Z,37.53
2017-03-23T21:44:42.779Z,36.60
2017-03-23T21:45:40.655Z,38.05
2017-03-23T21:46:38.614Z,31.40
2017-03-23T21:47:36.316Z,33.50
2017-03-23T21:48:33.948Z,36.05
2017-03-23T21:49:32.010Z,34.00
2017-03-23T21:50:31.459Z,33.02
2017-03-23T21:51:30.002Z,32.83
2017-03-23T21:52:28.731Z,33.93
2017-03-23T21:53:26.383Z,39.03
2017-03-23T21:54:24.180Z,32.80
2017-03-23T21:55:23.422Z,33.27
2017-03-23T21:56:21.113Z,32.58
2017-03-23T21:57:18.942Z,33.53
2017-03-23T21:58:16.830Z,33.48
2017-03-23T21:59:14.513Z,33.72
2017-03-23T22:00:12.611Z,33.13
2017-03-23T22:01:10.335Z,33.25
2017-03-23T22:02:07.964Z,34.15
2017-03-23T22:03:06.351Z,32.72
2017-03-23T22:04:04.912Z,34.68
2017-03-23T22:05:03.236Z,31.48
2017-03-23T22:06:00.883Z,33.80
2017-03-23T22:06:58.711Z,34.73
2017-03-23T22:07:56.363Z,34.55
2017-03-23T22:08:54.252Z,33.90
2017-03-23T22:09:51.881Z,36.82
2017-03-23T22:10:51.863Z,33.57
2017-03-23T22:11:49.599Z,31.90
2017-03-23T22:12:47.514Z,33.23
2017-03-23T22:13:46.559Z,33.82
2017-03-23T22:14:44.308Z,34.45
2017-03-23T22:15:42.022Z,35.50
2017-03-23T22:16:40.170Z,36.37
2017-03-23T22:17:38.675Z,33.28
2017-03-23T22:18:36.484Z,36.20
2017-03-23T22:19:34.145Z,33.78
2017-03-23T22:20:31.899Z,32.58
2017-03-23T22:21:29.547Z,37.13
2017-03-23T22:22:27.384Z,31.82
2017-03-23T22:23:26.562Z,35.32
2017-03-23T22:24:24.180Z,36.83
2017-03-23T22:25:22.625Z,36.25
2017-03-23T22:26:20.375Z,34.72
2017-03-23T22:27:17.996Z,36.60
2017-03-23T22:28:15.803Z,36.68
2017-03-23T22:29:13.667Z,32.70
2017-03-23T22:30:15.487Z,38.12
2017-03-23T22:31:13.283Z,38.60
2017-03-23T22:32:11.235Z,35.65
2017-03-23T22:33:09.151Z,36.63
2017-03-23T22:34:06.856Z,37.95
2017-03-23T22:35:04.633Z,38.55
2017-03-23T22:36:02.609Z,38.27
2017-03-23T22:37:00.334Z,37.40
2017-03-23T22:37:57.992Z,36.63
2017-03-23T22:38:55.675Z,34.88
2017-03-23T22:39:53.331Z,36.15
2017-03-23T22:40:51.592Z,37.52
2017-03-23T22:41:49.214Z,37.43
2017-03-23T22:42:47.890Z,36.53
2017-03-23T22:43:46.492Z,41.83
2017-03-23T22:44:44.143Z,41.67
2017-03-23T22:45:42.413Z,40.28
2017-03-23T22:46:40.138Z,36.98
2017-03-23T22:47:37.783Z,38.93
2017-03-23T22:48:35.637Z,41.45
2017-03-23T22:49:33.425Z,39.22
2017-03-23T22:50:31.587Z,40.47
2017-03-23T22:51:29.910Z,41.15
2017-03-23T22:52:27.761Z,38.38
2017-03-23T22:53:25.594Z,36.88
2017-03-23T22:54:23.431Z,35.72
2017-03-23T22:55:22.411Z,39.35
2017-03-23T22:56:20.358Z,39.40
2017-03-23T22:57:18.104Z,38.43
2017-03-23T22:58:15.975Z,40.17
2017-03-23T22:59:13.664Z,37.37
2017-03-23T23:00:12.119Z,37.73
2017-03-23T23:01:09.939Z,44.52
2017-03-23T23:02:08.771Z,36.47
2017-03-23T23:03:06.718Z,39.95
2017-03-23T23:04:04.375Z,37.00
2017-03-23T23:05:02.266Z,36.25
2017-03-23T23:06:00.135Z,41.70
2017-03-23T23:06:57.751Z,39.68
2017-03-23T23:07:55.407Z,37.77
2017-03-23T23:08:53.163Z,39.10
2017-03-23T23:09:50.816Z,38.67
2017-03-23T23:10:48.932Z,38.33
2017-03-23T23:11:47.425Z,40.80
2017-03-23T23:12:45.271Z,39.00
2017-03-23T23:13:43.024Z,38.67
2017-03-23T23:14:40.720Z,38.20
2017-03-23T23:15:38.522Z,37.98
2017-03-23T23:16:37.506Z,38.80
2017-03-23T23:17:35.165Z,39.28
2017-03-23T23:18:32.959Z,40.20
2017-03-23T23:19:30.687Z,40.38
2017-03-23T23:20:28.847Z,37.13
2017-03-23T23:21:26.623Z,36.35
2017-03-23T23:22:24.674Z,36.88
2017-03-23T23:23:22.729Z,38.18
2017-03-23T23:24:20.607Z,37.17
2017-03-23T23:25:18.572Z,33.90
2017-03-23T23:26:16.310Z,39.23
2017-03-23T23:27:14.491Z,38.27
2017-03-23T23:28:12.232Z,39.70
2017-03-23T23:29:10.011Z,36.08
2017-03-23T23:30:08.793Z,40.18
2017-03-23T23:31:06.737Z,37.87
2017-03-23T23:32:04.762Z,36.80
2017-03-23T23:33:02.446Z,36.42
2017-03-23T23:34:00.099Z,39.68
2017-03-23T23:34:57.883Z,40.68
2017-03-23T23:35:55.646Z,39.13
2017-03-23T23:36:53.367Z,39.88
2017-03-23T23:37:51.229Z,36.35
2017-03-23T23:38:48.896Z,36.58
2017-03-23T23:39:47.262Z,35.27
2017-03-23T23:40:45.023Z,37.80
2017-03-23T23:41:42.821Z,36.57
2017-03-23T23:42:41.419Z,35.27
2017-03-23T23:43:39.518Z,35.22
2017-03-23T23:44:37.319Z,37.30
2017-03-23T23:45:35.299Z,34.68
2017-03-23T23:46:33.131Z,36.50
2017-03-23T23:47:30.772Z,37.73
2017-03-23T23:48:28.459Z,41.62
2017-03-23T23:49:26.219Z,36.67
2017-03-23T23:50:24.068Z,34.12
2017-03-23T23:51:22.539Z,32.25
2017-03-23T23:52:20.335Z,37.60
2017-03-23T23:53:18.204Z,36.68
2017-03-23T23:54:15.844Z,37.30
2017-03-23T23:55:13.792Z,39.97
2017-03-23T23:56:11.423Z,36.13
2017-03-23T23:57:09.199Z,34.53
2017-03-23T23:58:07.005Z,34.42
2017-03-23T23:59:04.946Z,33.80
